• Join FlightAware (Why Join?)
  • Login
  • US Flag 
11:38PM EDT


 

Airport Tracker/Info


-or-


 

Live Flight TrackerFlight Track Log ✈ UAL6044 ✈ 18-Sep-2013 ✈ KMSY - KIAD

Flight Track Log - Related Links

Times and Time Zones

All times are in EDT time to prevent confusion due to time zone crossing. See the UAL6044 flight status page for this flight to view local times or setup timezone preferences in your user account.

Time Position Orientation Groundspeed Altitude Reporting Facility
EDT Latitude Longitude Course Direction KTS MPH feet Rate Location/Type
06:53PM 29.9908 -90.2581 105° East 147 169 400  Level Houston Center
06:54PM 29.9836 -90.2272 105° East 154 177 1,800 2,220 Climbing Houston Center
06:55PM 29.9717 -90.1750 105° East 191 220 3,800 2,280 Climbing Houston Center
06:56PM 29.9958 -90.1289 59° Northeast 198 228 6,000 1,980 Climbing Houston Center
06:57PM 30.0436 -90.0836 39° Northeast 217 250 7,700 1,740 Climbing Houston Center
06:58PM 30.1028 -90.0275 39° Northeast 266 306 9,600 1,500 Climbing Houston Center
06:59PM 30.1678 -89.9667 39° Northeast 292 336 10,800 1,260 Climbing Houston Center
07:00PM 30.2569 -89.8789 40° Northeast 344 396 12,300 1,440 Climbing Houston Center
07:01PM 30.3228 -89.8022 45° Northeast 358 412 13,800 1,740 Climbing Houston Center
07:02PM 30.3853 -89.7183 49° Northeast 354 407 16,000 1,980 Climbing Houston Center
07:03PM 30.4456 -89.6328 51° Northeast 347 399 17,900 1,800 Climbing Houston Center
07:04PM 30.5119 -89.5292 53° Northeast 337 388 19,800 1,500 Climbing Houston Center
07:05PM 30.5642 -89.4356 57° Northeast 344 396 21,100 1,200 Climbing Houston Center
07:06PM 30.6181 -89.3375 57° Northeast 357 411 22,300 1,200 Climbing Houston Center
07:07PM 30.6722 -89.2381 58° Northeast 365 420 23,600 1,200 Climbing Houston Center
07:08PM 30.7275 -89.1375 57° Northeast 369 425 24,800 1,200 Climbing Houston Center
07:09PM 30.7819 -89.0350 58° Northeast 372 428 26,100 1,200 Climbing Houston Center
07:10PM 30.8242 -88.9197 67° East 374 430 27,400 1,320 Climbing Houston Center
07:11PM 30.8733 -88.7847 67° East 378 435 28,900 1,260 Climbing Houston Center
07:12PM 30.9144 -88.6728 67° East 377 434 30,100 1,080 Climbing Houston Center
07:13PM 30.9544 -88.5642 67° East 378 435 31,200 1,080 Climbing Houston Center
07:14PM 30.9950 -88.4522 67° East 377 434 32,400 1,080 Climbing Houston Center
07:15PM 31.0342 -88.3403 68° East 376 433 33,500 1,020 Climbing Houston Center
07:16PM 31.0842 -88.2067 66° East 375 432 34,600 720 Climbing Houston Center
07:17PM 31.1225 -88.0933 68° East 376 433 35,000 180 Climbing Houston Center
07:18PM 31.1661 -87.9731 67° East 392 451 35,000  Level Houston Center
07:20PM 31.2114 -87.8447 68° East 418 481 35,000  Level Houston Center
07:21PM 31.2697 -87.6928 66° East 447 514 35,000  Level Houston Center
07:22PM 31.3247 -87.5564 65° Northeast 462 532 35,000  Level Houston Center
07:23PM 31.4119 -87.4422 48° Northeast 468 539 35,000  Level Houston Center
07:24PM 31.4928 -87.3264 51° Northeast 464 534 35,000  Level Houston Center
07:25PM 31.5761 -87.2136 49° Northeast 461 531 35,000  Level Houston Center
07:25PM 31.6478 -87.1175 49° Northeast 460 529 35,000  Level Atlanta Center
07:26PM 31.7383 -86.9958 49° Northeast 460 529 35,000  Level Atlanta Center
07:27PM 31.8206 -86.8789 50° Northeast 454 522 35,000  Level Atlanta Center
07:28PM 31.9044 -86.7642 49° Northeast 454 522 35,000  Level Atlanta Center
07:29PM 31.9839 -86.6614 48° Northeast 466 536 35,000  Level Atlanta Center
07:30PM 32.0678 -86.5461 49° Northeast 466 536 35,000  Level Atlanta Center
07:31PM 32.1514 -86.4331 49° Northeast 466 536 35,000  Level Atlanta Center
07:32PM 32.2372 -86.3028 52° Northeast 454 522 35,000  Level Atlanta Center
07:33PM 32.3081 -86.1917 53° Northeast 462 532 35,000  Level Atlanta Center
07:34PM 32.3853 -86.0753 52° Northeast 457 526 35,000  Level Atlanta Center
07:35PM 32.4728 -85.9519 50° Northeast 463 533 35,000  Level Atlanta Center
07:36PM 32.5519 -85.8303 52° Northeast 463 533 35,000  Level Atlanta Center
07:37PM 32.6308 -85.7136 51° Northeast 463 533 35,000  Level Atlanta Center
07:38PM 32.7117 -85.5917 52° Northeast 463 533 35,000  Level Atlanta Center
07:39PM 32.7903 -85.4719 52° Northeast 458 527 35,000  Level Atlanta Center
07:40PM 32.8708 -85.3497 52° Northeast 458 527 35,000  Level Atlanta Center
07:41PM 32.9536 -85.2294 51° Northeast 458 527 35,000  Level Atlanta Center
07:42PM 33.0403 -85.1019 51° Northeast 451 519 35,000  Level Atlanta Center
07:43PM 33.1000 -84.9661 62° Northeast 445 512 35,000  Level Atlanta Center
07:44PM 33.1322 -84.8078 76° East 481 554 35,000  Level Atlanta Center
07:45PM 33.1644 -84.6567 76° East 469 540 35,000  Level Atlanta Center
07:46PM 33.1964 -84.4981 76° East 474 545 35,000  Level Atlanta Center
07:47PM 33.2636 -84.3642 59° Northeast 459 528 35,000  Level Atlanta Center
07:48PM 33.3475 -84.2528 48° Northeast 459 528 35,000  Level Atlanta Center
07:49PM 33.4311 -84.1358 49° Northeast 459 528 35,000  Level Atlanta Center
07:50PM 33.5186 -84.0189 48° Northeast 459 528 35,000  Level Atlanta Center
07:51PM 33.6042 -83.9042 48° Northeast 464 534 35,000  Level Atlanta Center
07:52PM 33.6897 -83.7917 48° Northeast 464 534 35,000  Level Atlanta Center
07:53PM 33.7750 -83.6714 50° Northeast 464 534 35,000  Level Atlanta Center
07:54PM 33.8642 -83.5558 47° Northeast 464 534 35,000  Level Atlanta Center
07:55PM 33.9453 -83.4428 49° Northeast 459 528 35,000  Level Atlanta Center
07:56PM 34.0239 -83.3369 48° Northeast 464 534 35,000  Level Atlanta Center
07:57PM 34.1067 -83.2183 50° Northeast 464 534 35,000  Level Atlanta Center
07:58PM 34.1914 -83.0994 49° Northeast 464 534 35,000  Level Atlanta Center
07:59PM 34.2761 -82.9856 48° Northeast 459 528 35,000  Level Atlanta Center
08:00PM 34.3606 -82.8686 49° Northeast 460 529 35,000  Level Atlanta Center
08:01PM 34.4450 -82.7542 48° Northeast 460 529 35,000  Level Atlanta Center
08:02PM 34.5272 -82.6369 50° Northeast 460 529 35,000  Level Atlanta Center
08:03PM 34.6217 -82.5117 47° Northeast 460 529 35,000  Level Atlanta Center
08:04PM 34.7056 -82.3914 50° Northeast 460 529 35,000  Level Atlanta Center
08:05PM 34.7897 -82.2733 49° Northeast 465 535 35,000  Level Atlanta Center
08:06PM 34.8733 -82.1578 49° Northeast 465 535 35,000  Level Atlanta Center
08:07PM 34.9489 -82.0519 49° Northeast 465 535 35,000  Level Atlanta Center
08:08PM 35.0306 -81.9308 51° Northeast 460 529 35,000  Level Atlanta Center
08:09PM 35.1011 -81.7997 57° Northeast 460 529 35,000  Level Atlanta Center
08:10PM 35.1739 -81.6681 56° Northeast 460 529 35,000  Level Atlanta Center
08:11PM 35.2442 -81.5339 57° Northeast 466 536 35,000  Level Atlanta Center
08:12PM 35.3122 -81.4019 58° Northeast 466 536 35,000  Level Atlanta Center
08:13PM 35.3803 -81.2647 59° Northeast 466 536 35,000  Level Atlanta Center
08:14PM 35.4500 -81.1300 58° Northeast 461 531 35,000  Level Atlanta Center
08:15PM 35.5219 -80.9894 58° Northeast 467 537 35,000 -360 Level Atlanta Center
08:16PM 35.5956 -80.8539 56° Northeast 467 537 34,300 -960 Descending Atlanta Center
08:17PM 35.6650 -80.7183 58° Northeast 474 545 33,100 -660 Descending Atlanta Center
08:18PM 35.7383 -80.5747 58° Northeast 484 557 33,000 -60 Descending Atlanta Center
08:19PM 35.8172 -80.4228 57° Northeast 484 557 33,000  Level Atlanta Center
08:22PM 35.9858 -80.0894 58° Northeast 485 558 33,000  Level Washington Center
08:23PM 36.0531 -79.9672 56° Northeast 480 552 33,000  Level Washington Center
08:24PM 36.1311 -79.8303 55° Northeast 480 552 33,000  Level Washington Center
08:25PM 36.2069 -79.6903 56° Northeast 485 558 33,000  Level Washington Center
08:26PM 36.2933 -79.5400 54° Northeast 485 558 33,000  Level Washington Center
08:27PM 36.3639 -79.4197 54° Northeast 485 558 33,000 -180 Level Washington Center
08:28PM 36.4461 -79.2664 56° Northeast 485 558 32,700 -1,260 Descending Washington Center
08:29PM 36.5167 -79.1406 55° Northeast 485 558 30,600 -2,340 Descending Washington Center
08:30PM 36.5914 -79.0092 55° Northeast 480 552 28,100 -2,280 Descending Washington Center
08:31PM 36.6769 -78.8628 54° Northeast 475 547 26,000 -1,620 Descending Washington Center
08:32PM 36.7475 -78.7206 58° Northeast 480 552 25,000 -540 Descending Washington Center
08:33PM 36.8150 -78.6039 54° Northeast 448 516 25,000  Level Washington Center
08:34PM 36.8719 -78.4947 57° Northeast 407 468 25,000  Level Washington Center
08:35PM 36.9350 -78.3853 54° Northeast 391 450 25,000  Level Washington Center
08:36PM 36.9897 -78.2806 57° Northeast 384 442 25,000  Level Washington Center
08:37PM 37.0625 -78.1894 45° Northeast 384 442 25,000  Level Washington Center
08:38PM 37.1603 -78.1094 33° Northeast 372 428 25,000  Level Washington Center
08:39PM 37.2578 -78.0342 32° Northeast 391 450 25,000  Level Washington Center
08:40PM 37.3594 -77.9592 30° Northeast 409 471 25,000 -300 Level Washington Center
08:41PM 37.4569 -77.8836 32° Northeast 422 486 24,400 -1,020 Descending Washington Center
08:42PM 37.5561 -77.8133 29° Northeast 410 472 23,100 -2,040 Descending Washington Center
08:44PM 37.7522 -77.6983 25° Northeast 384 442 18,400 -2,220 Descending Washington Center
08:45PM 37.8472 -77.6403 26° Northeast 384 442 16,400 -2,160 Descending Washington Center
08:46PM 37.9375 -77.5903 24° Northeast 367 422 14,200 -2,160 Descending Washington Center
08:47PM 38.0219 -77.5397 25° Northeast 348 400 12,200 -1,860 Descending Washington Center
08:48PM 38.0956 -77.4994 23° Northeast 329 379 10,500 -1,140 Descending Washington Center
08:49PM 38.1692 -77.4536 26° Northeast 307 353 10,000 -300 Descending Washington Center
08:50PM 38.2428 -77.4106 25° Northeast 293 337 10,000 -600 Level Washington Center
08:51PM 38.3164 -77.3675 25° Northeast 288 331 8,800 -1,380 Descending Washington Center
08:52PM 38.3917 -77.3586 North 277 319 7,300 -1,560 Descending Washington Center
08:53PM 38.4689 -77.3631 357° North 270 311 5,800 -1,200 Descending Washington Center
08:54PM 38.5439 -77.3647 359° North 270 311 5,000 -540 Descending Washington Center
08:55PM 38.6189 -77.3667 359° North 270 311 4,800 -540 Descending Washington Center
08:55PM 38.6833 -77.3667 360° North 273 314 4,100 -420 Descending Potomac TRACON
08:56PM 38.7500 -77.3500 11° North 271 312 4,100  Level Potomac TRACON
08:57PM 38.8333 -77.3500 360° North 268 308 4,100 -60 Level Potomac TRACON
08:58PM 38.9000 -77.3500 360° North 266 306 4,000 -540 Descending Potomac TRACON
08:59PM 38.9833 -77.3500 360° North 261 300 3,100 -540 Descending Potomac TRACON
09:00PM 39.0500 -77.3500 360° North 219 252 3,000 -540 Descending Potomac TRACON
09:01PM 39.0667 -77.4167 288° West 194 223 2,100 -600 Descending Potomac TRACON
09:02PM 39.0167 -77.4333 195° South 162 186 1,800 -600 Descending Potomac TRACON
09:03PM 38.9833 -77.4333 180° South 128 147 900 -900 Descending Potomac TRACON